Time;durP1;ratioP1;P1;durP2;ratioP2;P2;SDS_P1;SDS_P2;PMS_P1;PMS_P2;Temp;Humidity;BMP_temperature;BMP_pressure;BME280_temperature;BME280_humidity;BME280_pressure;Samples;Min_cycle;Max_cycle;Signal;HPM_P1;HPM_P2
2021/01/12 00:00:26;;;;;;;14.00;3.85;;;6.60;99.90;;;;;;4975588;28;20101;-94
2021/01/12 00:02:53;;;;;;;21.13;4.57;;;6.60;99.90;;;;;;4983890;28;20401;-94
2021/01/12 00:05:20;;;;;;;12.40;4.10;;;6.60;99.90;;;;;;4987236;28;20077;-94
2021/01/12 00:07:49;;;;;;;15.35;4.40;;;6.60;99.90;;;;;;4982981;28;20902;-93
2021/01/12 00:10:17;;;;;;;18.75;4.63;;;6.60;99.90;;;;;;4980222;28;20376;-94
2021/01/12 00:12:42;;;;;;;17.23;4.35;;;6.60;99.90;;;;;;4940248;28;20047;-95
2021/01/12 00:15:09;;;;;;;13.30;4.25;;;6.70;99.90;;;;;;4957302;28;20061;-96
2021/01/12 00:17:35;;;;;;;13.23;3.58;;;6.60;99.90;;;;;;4946767;28;20058;-94
2021/01/12 00:20:03;;;;;;;12.75;4.18;;;6.60;99.90;;;;;;4974639;28;20051;-95
2021/01/12 00:22:29;;;;;;;15.00;4.70;;;6.60;99.90;;;;;;4958247;28;20047;-93
2021/01/12 00:24:55;;;;;;;17.17;4.40;;;6.70;99.90;;;;;;4970187;28;20094;-95
2021/01/12 00:27:22;;;;;;;16.17;4.93;;;6.70;99.90;;;;;;4957607;28;20055;-95
2021/01/12 00:29:49;;;;;;;16.08;4.57;;;6.70;99.90;;;;;;4939977;28;20058;-95
2021/01/12 00:32:20;;;;;;;19.35;4.80;;;6.70;99.90;;;;;;4973397;28;20047;-94
2021/01/12 00:34:46;;;;;;;17.63;5.13;;;6.60;99.90;;;;;;4970549;28;20035;-94
2021/01/12 00:37:12;;;;;;;17.27;5.05;;;6.70;99.90;;;;;;4972556;28;20039;-95
2021/01/12 00:39:38;;;;;;;18.70;5.25;;;6.70;99.90;;;;;;4955454;28;20057;-92
2021/01/12 00:42:04;;;;;;;10.05;5.00;;;6.70;99.90;;;;;;4972675;28;20054;-96
2021/01/12 00:44:30;;;;;;;20.17;5.28;;;6.70;99.90;;;;;;4967463;28;20559;-91
2021/01/12 00:46:56;;;;;;;18.35;5.55;;;6.70;99.90;;;;;;4965984;28;20039;-95
2021/01/12 00:49:23;;;;;;;17.90;5.47;;;6.70;99.90;;;;;;4956311;28;20133;-93
2021/01/12 00:51:49;;;;;;;11.30;4.60;;;6.70;99.90;;;;;;4972757;28;20899;-94
2021/01/12 00:54:17;;;;;;;17.42;5.47;;;6.70;99.90;;;;;;4970910;28;20036;-96
2021/01/12 00:56:43;;;;;;;27.13;5.30;;;6.70;99.90;;;;;;4968385;28;20045;-95
2021/01/12 00:59:09;;;;;;;20.38;4.88;;;6.80;99.90;;;;;;4972487;28;20690;-95
2021/01/12 01:01:39;;;;;;;18.52;5.05;;;6.70;99.90;;;;;;4954306;28;20097;-93
2021/01/12 01:04:06;;;;;;;14.82;4.75;;;6.70;99.90;;;;;;4971990;28;20094;-95
2021/01/12 01:06:32;;;;;;;17.10;6.50;;;6.70;99.90;;;;;;4970358;28;20721;-92
2021/01/12 01:08:58;;;;;;;19.70;4.80;;;6.80;99.90;;;;;;4956498;28;20058;-93
2021/01/12 01:11:24;;;;;;;11.23;3.90;;;6.90;99.90;;;;;;4940946;28;20150;-95
2021/01/12 01:13:50;;;;;;;14.80;4.32;;;6.80;99.90;;;;;;4956040;28;20047;-93
2021/01/12 01:16:16;;;;;;;16.88;5.60;;;6.80;99.90;;;;;;4970986;28;20071;-96
2021/01/12 01:18:42;;;;;;;21.90;4.97;;;6.80;99.90;;;;;;4973410;28;20062;-95
2021/01/12 01:21:14;;;;;;;15.88;5.25;;;6.80;99.90;;;;;;4973381;28;20046;-94
2021/01/12 01:23:40;;;;;;;17.90;4.68;;;6.80;99.90;;;;;;4989093;28;20117;-96
2021/01/12 01:26:06;;;;;;;17.90;3.90;;;6.80;99.90;;;;;;4958013;28;20093;-92
2021/01/12 01:28:32;;;;;;;6.63;2.95;;;6.80;99.90;;;;;;4974556;28;20034;-95
2021/01/12 01:30:58;;;;;;;16.65;4.45;;;6.80;99.90;;;;;;4974228;28;20133;-94
2021/01/12 01:33:24;;;;;;;10.77;3.92;;;6.80;99.90;;;;;;4971527;28;20034;-93
2021/01/12 01:35:49;;;;;;;18.42;4.20;;;6.80;99.90;;;;;;4972150;28;20563;-95
2021/01/12 01:38:15;;;;;;;10.40;4.03;;;6.80;99.90;;;;;;4957025;28;20477;-96
2021/01/12 01:40:41;;;;;;;17.20;4.07;;;6.80;99.90;;;;;;4998705;28;20401;-95
2021/01/12 01:43:07;;;;;;;9.88;3.97;;;6.80;99.90;;;;;;4954838;28;20077;-94
2021/01/12 01:45:33;;;;;;;14.48;4.07;;;6.80;99.90;;;;;;4976825;28;20038;-95
2021/01/12 01:48:03;;;;;;;10.88;3.80;;;6.70;99.90;;;;;;4972416;28;20050;-96
2021/01/12 01:50:29;;;;;;;11.57;3.50;;;6.80;99.90;;;;;;4971230;28;20041;-94
2021/01/12 01:52:56;;;;;;;17.10;4.32;;;6.90;99.90;;;;;;4954312;28;20330;-95
2021/01/12 01:55:23;;;;;;;10.15;3.60;;;6.70;99.90;;;;;;4964242;28;20434;-92
2021/01/12 01:57:50;;;;;;;6.82;2.78;;;6.80;99.90;;;;;;4971447;28;20054;-94
2021/01/12 02:00:19;;;;;;;14.18;3.95;;;6.80;99.90;;;;;;4971007;28;20117;-93
2021/01/12 02:03:16;;;;;;;5.20;3.28;;;6.70;99.90;;;;;;4970041;28;20047;-94
2021/01/12 02:05:57;;;;;;;10.15;3.50;;;6.80;99.90;;;;;;4969933;28;20129;-93
2021/01/12 02:08:29;;;;;;;13.60;3.47;;;6.80;99.90;;;;;;4972615;28;20049;-96
2021/01/12 02:11:00;;;;;;;13.98;3.80;;;6.80;99.90;;;;;;4954152;28;20819;-95
2021/01/12 02:13:28;;;;;;;10.57;3.20;;;6.80;99.90;;;;;;4987003;28;20043;-94
2021/01/12 02:15:57;;;;;;;14.68;4.00;;;6.80;99.90;;;;;;4954740;28;20042;-94
2021/01/12 02:18:23;;;;;;;10.07;3.20;;;6.80;99.90;;;;;;4986681;28;20478;-91
2021/01/12 02:20:50;;;;;;;8.35;3.13;;;6.80;99.90;;;;;;4969795;28;20051;-93
2021/01/12 02:23:28;;;;;;;10.75;3.90;;;6.80;99.90;;;;;;4943418;28;20047;-94
2021/01/12 02:25:55;;;;;;;11.10;3.42;;;6.80;99.90;;;;;;4967562;28;20171;-95
2021/01/12 02:28:21;;;;;;;12.05;3.42;;;6.80;99.90;;;;;;4938686;28;20050;-95
2021/01/12 02:30:47;;;;;;;9.63;3.38;;;6.80;99.90;;;;;;4937875;28;20050;-93
2021/01/12 02:33:12;;;;;;;7.43;3.05;;;6.80;99.90;;;;;;4944594;28;20043;-93
2021/01/12 02:35:41;;;;;;;12.85;4.15;;;6.80;99.90;;;;;;4953698;28;20109;-91
2021/01/12 02:38:07;;;;;;;17.67;3.90;;;6.80;99.90;;;;;;4971082;28;20097;-93
2021/01/12 02:40:34;;;;;;;11.82;3.78;;;6.80;99.90;;;;;;4970543;28;20464;-94
2021/01/12 02:43:00;;;;;;;17.92;3.47;;;6.80;99.90;;;;;;4951759;28;20681;-94
2021/01/12 02:45:26;;;;;;;13.85;3.25;;;6.80;99.90;;;;;;4970328;28;20039;-94
2021/01/12 02:47:52;;;;;;;15.70;3.72;;;6.80;99.90;;;;;;4953525;28;20079;-95
2021/01/12 02:50:18;;;;;;;5.53;3.08;;;6.80;99.90;;;;;;4941414;28;20420;-92
2021/01/12 02:52:45;;;;;;;7.82;3.10;;;6.80;99.90;;;;;;4929707;28;20043;-95
2021/01/12 02:55:13;;;;;;;10.00;3.10;;;6.90;99.90;;;;;;4966657;28;20045;-94
2021/01/12 02:57:39;;;;;;;12.15;3.97;;;6.80;99.90;;;;;;4969240;28;20047;-91
2021/01/12 03:00:07;;;;;;;12.45;3.60;;;6.80;99.90;;;;;;4960777;28;20493;-94
2021/01/12 03:02:33;;;;;;;10.70;3.30;;;6.80;99.90;;;;;;4971575;28;20038;-94
2021/01/12 03:04:59;;;;;;;12.13;2.75;;;6.80;99.90;;;;;;4969738;28;20046;-92
2021/01/12 03:07:25;;;;;;;12.02;3.30;;;6.80;99.90;;;;;;4991652;28;20114;-96
2021/01/12 03:09:51;;;;;;;8.18;3.10;;;6.80;99.90;;;;;;4975678;28;20039;-96
2021/01/12 03:12:17;;;;;;;10.00;3.30;;;6.80;99.90;;;;;;4975398;28;20047;-95
2021/01/12 03:14:43;;;;;;;18.38;3.80;;;6.80;99.90;;;;;;4974003;28;20058;-92
2021/01/12 03:17:10;;;;;;;10.13;3.20;;;6.80;99.90;;;;;;4973698;28;20115;-96
2021/01/12 03:19:36;;;;;;;12.27;3.63;;;6.80;99.90;;;;;;4974908;28;20130;-95
2021/01/12 03:22:03;;;;;;;18.98;4.20;;;6.80;99.90;;;;;;4987923;28;20069;-94
2021/01/12 03:24:29;;;;;;;15.32;3.47;;;6.90;99.90;;;;;;4972331;28;20090;-96
2021/01/12 03:26:55;;;;;;;14.93;3.63;;;6.90;99.90;;;;;;4973209;28;20046;-94
2021/01/12 03:29:21;;;;;;;10.20;3.55;;;6.90;99.90;;;;;;4941160;28;20058;-95
2021/01/12 03:31:47;;;;;;;15.90;3.40;;;6.80;99.90;;;;;;4972948;28;20050;-93
2021/01/12 03:34:13;;;;;;;10.18;3.33;;;6.80;99.90;;;;;;4964697;28;20043;-94
2021/01/12 03:36:40;;;;;;;8.05;2.72;;;6.80;99.90;;;;;;4970450;28;20524;-94
2021/01/12 03:39:06;;;;;;;10.00;2.78;;;6.80;99.90;;;;;;4965107;28;20039;-96
2021/01/12 03:41:32;;;;;;;8.57;3.22;;;6.90;99.90;;;;;;4970209;28;20040;-95
2021/01/12 03:44:01;;;;;;;12.88;3.60;;;6.80;99.90;;;;;;4969987;28;20436;-95
2021/01/12 03:46:27;;;;;;;5.28;2.85;;;6.80;99.90;;;;;;4957450;28;20074;-95
2021/01/12 03:48:54;;;;;;;18.67;3.75;;;6.90;99.90;;;;;;4974532;28;20392;-95
2021/01/12 03:51:23;;;;;;;12.18;3.63;;;6.80;99.90;;;;;;4973466;28;20045;-95
2021/01/12 03:53:48;;;;;;;11.75;3.83;;;6.90;99.90;;;;;;4964225;28;20051;-94
2021/01/12 03:56:14;;;;;;;10.30;3.30;;;6.90;99.90;;;;;;4954226;29;20047;-94
2021/01/12 03:58:41;;;;;;;8.98;2.67;;;6.90;99.90;;;;;;4988245;28;20049;-96
2021/01/12 04:01:07;;;;;;;7.50;2.53;;;6.90;99.90;;;;;;4974026;28;20520;-94
2021/01/12 04:03:33;;;;;;;8.25;2.22;;;6.90;99.90;;;;;;4962852;28;20533;-96
2021/01/12 04:06:03;;;;;;;7.28;1.98;;;6.90;99.90;;;;;;4962718;28;20134;-94
2021/01/12 04:08:29;;;;;;;;;;;6.90;99.90;;;;;;4988824;28;20043;-96
2021/01/12 04:10:55;;;;;;;13.65;1.23;;;6.60;99.90;;;;;;4979221;28;19937;-95
2021/01/12 04:13:21;;;;;;;12.98;1.17;;;6.30;99.90;;;;;;4989563;28;20122;-96
2021/01/12 04:15:47;;;;;;;17.20;1.35;;;6.30;99.90;;;;;;4989216;28;20055;-91
2021/01/12 04:18:13;;;;;;;24.40;1.83;;;6.10;99.90;;;;;;4979666;28;20042;-95
2021/01/12 04:20:39;;;;;;;16.13;1.48;;;6.00;99.90;;;;;;4959486;28;20046;-92
2021/01/12 04:23:05;;;;;;;19.30;2.28;;;5.90;99.90;;;;;;4971194;28;20400;-96
2021/01/12 04:25:31;;;;;;;25.42;1.50;;;5.90;99.90;;;;;;4970904;28;20072;-94
2021/01/12 04:27:56;;;;;;;26.52;2.00;;;5.80;99.90;;;;;;4949202;28;20122;-95
2021/01/12 04:30:22;;;;;;;19.90;2.20;;;5.70;99.90;;;;;;4956554;28;20045;-96
2021/01/12 04:32:48;;;;;;;22.70;1.58;;;5.70;99.90;;;;;;4973015;28;20055;-89
2021/01/12 04:35:14;;;;;;;31.63;2.38;;;5.70;99.90;;;;;;4956133;28;20504;-95
2021/01/12 04:37:40;;;;;;;24.23;2.00;;;5.60;99.90;;;;;;4970191;28;20043;-93
2021/01/12 04:40:06;;;;;;;15.32;2.25;;;5.60;99.90;;;;;;4971946;28;20481;-95
2021/01/12 04:42:32;;;;;;;22.60;1.83;;;5.50;99.90;;;;;;4972985;28;20043;-95
2021/01/12 04:45:00;;;;;;;19.83;2.33;;;5.40;99.90;;;;;;4939617;28;20039;-95
2021/01/12 04:47:26;;;;;;;15.23;1.58;;;5.50;99.90;;;;;;4956132;28;20074;-95
2021/01/12 04:49:52;;;;;;;12.25;1.83;;;5.50;99.90;;;;;;4968234;28;20085;-90
2021/01/12 04:52:18;;;;;;;12.43;1.13;;;5.40;99.90;;;;;;4957005;28;20181;-95
2021/01/12 04:54:44;;;;;;;20.60;1.42;;;5.40;99.90;;;;;;4940088;28;20468;-95
2021/01/12 04:57:13;;;;;;;9.48;0.98;;;5.40;99.90;;;;;;4956117;28;20118;-94
2021/01/12 04:59:39;;;;;;;4.63;0.50;;;5.40;99.90;;;;;;4974072;28;20055;-93
2021/01/12 05:02:05;;;;;;;11.15;1.00;;;5.30;99.90;;;;;;4944217;28;20452;-95
2021/01/12 05:04:35;;;;;;;8.77;0.90;;;5.30;99.90;;;;;;4957382;28;20129;-95
2021/01/12 05:07:02;;;;;;;11.43;1.08;;;5.40;99.90;;;;;;4972659;28;20501;-96
2021/01/12 05:09:28;;;;;;;13.02;0.80;;;5.40;99.90;;;;;;4989023;28;20122;-95
2021/01/12 05:11:56;;;;;;;10.55;0.98;;;5.40;99.90;;;;;;4974601;28;20055;-90
2021/01/12 05:14:25;;;;;;;14.15;1.25;;;5.30;99.90;;;;;;4977884;28;20042;-96
2021/01/12 05:16:52;;;;;;;20.75;1.33;;;5.30;99.90;;;;;;4976801;28;20725;-94
2021/01/12 05:19:21;;;;;;;19.48;1.67;;;5.30;99.90;;;;;;4980056;28;20070;-96
2021/01/12 05:21:48;;;;;;;12.70;1.27;;;5.30;99.90;;;;;;4969771;28;20342;-95
2021/01/12 05:24:19;;;;;;;10.48;1.27;;;5.20;99.90;;;;;;4964453;28;20043;-96
2021/01/12 05:26:45;;;;;;;13.73;1.35;;;5.10;99.90;;;;;;4955858;28;20043;-96
2021/01/12 05:29:11;;;;;;;16.80;1.30;;;5.10;99.90;;;;;;4971931;28;20051;-95
2021/01/12 05:31:38;;;;;;;18.27;1.80;;;5.00;99.90;;;;;;4961808;28;20124;-94
2021/01/12 05:34:09;;;;;;;17.08;2.25;;;4.90;99.90;;;;;;4977526;28;20053;-96
2021/01/12 05:37:00;;;;;;;22.20;2.15;;;5.00;99.90;;;;;;4983434;28;20046;-92
2021/01/12 05:39:25;;;;;;;;;;;4.90;99.90;;;;;;4982069;28;20039;-96
2021/01/12 05:41:55;;;;;;;20.88;1.75;;;4.90;99.90;;;;;;4981536;28;19929;-94
2021/01/12 05:44:23;;;;;;;17.55;1.80;;;4.90;99.90;;;;;;4980173;28;20050;-96
2021/01/12 05:46:51;;;;;;;20.90;1.77;;;4.90;99.90;;;;;;4971731;28;20043;-96
2021/01/12 05:49:18;;;;;;;9.02;1.60;;;4.90;99.90;;;;;;4966325;28;20058;-95
2021/01/12 05:51:46;;;;;;;16.77;1.50;;;4.80;99.90;;;;;;4987903;28;20125;-96
2021/01/12 05:54:31;;;;;;;24.90;1.85;;;4.80;99.90;;;;;;4976178;28;20069;-96
2021/01/12 05:56:59;;;;;;;10.73;1.30;;;4.80;99.90;;;;;;4976016;28;20067;-90
2021/01/12 05:59:27;;;;;;;23.13;1.80;;;4.80;99.90;;;;;;4975368;28;20057;-96
2021/01/12 06:01:55;;;;;;;25.50;1.27;;;4.70;99.90;;;;;;4972040;28;20045;-96
2021/01/12 06:04:24;;;;;;;;;;;4.70;99.90;;;;;;4977808;28;20047;-94
2021/01/12 06:06:55;;;;;;;19.98;1.58;;;4.70;99.90;;;;;;4974647;28;20020;-95
2021/01/12 06:09:24;;;;;;;27.95;2.00;;;4.60;99.90;;;;;;4966303;28;20539;-95
2021/01/12 06:11:53;;;;;;;31.25;1.60;;;4.80;99.90;;;;;;4973965;28;20100;-96
2021/01/12 06:14:23;;;;;;;14.70;1.80;;;4.60;99.90;;;;;;4979829;28;20279;-95
2021/01/12 06:16:50;;;;;;;14.70;1.38;;;4.60;99.90;;;;;;4976237;28;20066;-96
2021/01/12 06:19:20;;;;;;;8.05;1.05;;;4.60;99.90;;;;;;4957464;28;20059;-94
2021/01/12 06:21:55;;;;;;;;;;;4.50;99.90;;;;;;4973732;28;20091;-93
2021/01/12 06:24:27;;;;;;;20.60;1.27;;;4.60;99.90;;;;;;4970272;28;20116;-96
2021/01/12 06:26:54;;;;;;;14.80;1.58;;;4.60;99.90;;;;;;4974517;28;20484;-96
2021/01/12 06:29:20;;;;;;;24.73;2.13;;;4.50;99.90;;;;;;4953854;28;20645;-94
2021/01/12 06:31:47;;;;;;;13.10;1.67;;;4.50;99.90;;;;;;4970512;28;20910;-94
2021/01/12 06:34:21;;;;;;;18.48;1.85;;;4.50;99.90;;;;;;4970513;28;20057;-96
2021/01/12 06:36:54;;;;;;;30.77;1.70;;;4.50;99.90;;;;;;4959555;28;20055;-94
2021/01/12 06:39:23;;;;;;;25.95;1.63;;;4.50;99.90;;;;;;4971936;28;20092;-95
2021/01/12 06:41:50;;;;;;;24.42;2.45;;;4.60;99.90;;;;;;4983284;28;20071;-96
2021/01/12 06:44:27;;;;;;;22.27;2.00;;;4.60;99.90;;;;;;4976397;28;20046;-96
2021/01/12 06:46:54;;;;;;;25.25;1.50;;;4.60;99.90;;;;;;4972453;28;20077;-95
2021/01/12 06:49:25;;;;;;;26.30;1.88;;;4.60;99.90;;;;;;4970333;28;20105;-95
2021/01/12 06:52:02;;;;;;;29.90;1.85;;;4.60;99.90;;;;;;4976276;28;20043;-96
2021/01/12 06:54:32;;;;;;;28.30;2.65;;;4.60;99.90;;;;;;4973867;28;20061;-96
2021/01/12 06:57:04;;;;;;;5.72;0.68;;;4.60;99.90;;;;;;4975922;28;20066;-93
2021/01/12 06:59:38;;;;;;;26.42;2.08;;;4.60;99.90;;;;;;4976185;28;20122;-91
2021/01/12 07:02:15;;;;;;;27.63;2.58;;;4.60;99.90;;;;;;4970464;28;20445;-90
2021/01/12 07:04:52;;;;;;;25.02;2.47;;;4.60;99.90;;;;;;4987696;28;20045;-95
2021/01/12 07:07:22;;;;;;;40.80;2.53;;;4.60;99.90;;;;;;4975710;28;20093;-95
2021/01/12 07:09:48;;;;;;;37.30;2.28;;;4.50;99.90;;;;;;4971979;28;20062;-88
2021/01/12 07:12:20;;;;;;;29.83;2.33;;;4.60;99.90;;;;;;4969848;28;20039;-87
2021/01/12 07:14:57;;;;;;;41.65;3.05;;;4.60;99.90;;;;;;4973487;28;20050;-88
2021/01/12 07:17:28;;;;;;;28.95;2.60;;;4.50;99.90;;;;;;4969029;28;20190;-92
2021/01/12 07:20:16;;;;;;;32.70;2.78;;;4.60;99.90;;;;;;4968417;28;20069;-90
2021/01/12 07:22:57;;;;;;;33.58;2.40;;;4.50;99.90;;;;;;4971821;28;20159;-91
2021/01/12 07:25:31;;;;;;;13.77;1.98;;;4.50;99.90;;;;;;4986486;28;20074;-91
2021/01/12 07:28:09;;;;;;;26.08;2.08;;;4.40;99.90;;;;;;4972707;28;20035;-92
2021/01/12 07:30:39;;;;;;;23.77;2.17;;;4.30;99.90;;;;;;4970084;28;20094;-89
2021/01/12 07:33:17;;;;;;;19.63;2.80;;;4.30;99.90;;;;;;4969510;28;20515;-89
2021/01/12 07:35:54;;;;;;;20.73;2.17;;;4.40;99.90;;;;;;4970150;28;20409;-94
2021/01/12 07:38:22;;;;;;;45.92;10.00;;;4.40;99.90;;;;;;4984689;28;20062;-92
2021/01/12 07:40:49;;;;;;;19.80;2.17;;;4.30;99.90;;;;;;4969565;28;20057;-93
2021/01/12 07:43:20;;;;;;;7.93;1.30;;;4.20;99.90;;;;;;4975172;28;20043;-91
2021/01/12 07:45:48;;;;;;;18.52;1.73;;;4.30;99.90;;;;;;4974651;28;20911;-91
2021/01/12 07:48:14;;;;;;;11.65;1.20;;;4.30;99.90;;;;;;4970492;28;20054;-91
2021/01/12 07:50:44;;;;;;;11.95;1.63;;;4.20;99.90;;;;;;4975972;28;20046;-91
2021/01/12 07:53:10;;;;;;;;;;;4.20;99.90;;;;;;4986933;28;20065;-89
2021/01/12 07:55:41;;;;;;;17.60;1.75;;;4.20;99.90;;;;;;4984809;28;19922;-88
2021/01/12 07:58:08;;;;;;;13.95;1.60;;;4.20;99.90;;;;;;4990950;28;20111;-88
2021/01/12 08:00:34;;;;;;;15.35;2.53;;;4.20;99.90;;;;;;4983742;28;20050;-88
2021/01/12 08:03:01;;;;;;;11.25;1.42;;;4.20;99.90;;;;;;4996608;28;20121;-88
2021/01/12 08:05:27;;;;;;;6.35;0.98;;;4.20;99.90;;;;;;4986478;28;20038;-89
2021/01/12 08:08:04;;;;;;;19.55;1.60;;;4.20;99.90;;;;;;4987240;28;20050;-89
2021/01/12 08:10:31;;;;;;;16.83;1.65;;;4.20;99.90;;;;;;4988721;28;20031;-88
2021/01/12 08:13:11;;;;;;;15.75;1.48;;;4.20;99.90;;;;;;4952963;28;20049;-88
2021/01/12 08:15:38;;;;;;;16.30;2.15;;;4.20;99.90;;;;;;4965997;28;20105;-88
2021/01/12 08:18:05;;;;;;;72.63;23.67;;;4.30;99.90;;;;;;4983147;28;20063;-88
2021/01/12 08:20:31;;;;;;;23.25;2.03;;;4.30;99.90;;;;;;4965144;28;20059;-88
2021/01/12 08:22:57;;;;;;;15.95;2.00;;;4.30;99.90;;;;;;4956255;28;20413;-88
2021/01/12 08:25:24;;;;;;;21.20;2.00;;;4.30;99.90;;;;;;4955793;28;20039;-88
2021/01/12 08:27:59;;;;;;;12.93;1.30;;;4.30;99.90;;;;;;4974378;28;20094;-88
2021/01/12 08:30:35;;;;;;;21.40;2.40;;;4.30;99.90;;;;;;4967359;28;20046;-89
2021/01/12 08:33:22;;;;;;;26.27;2.33;;;4.30;99.90;;;;;;4970847;28;20035;-88
2021/01/12 08:35:53;;;;;;;10.77;1.20;;;4.30;99.90;;;;;;4986202;28;20054;-88
2021/01/12 08:38:22;;;;;;;19.70;2.17;;;4.40;99.90;;;;;;4971063;28;20074;-89
2021/01/12 08:40:49;;;;;;;25.83;2.38;;;4.40;99.90;;;;;;4986734;28;20054;-89
2021/01/12 08:43:18;;;;;;;19.95;1.70;;;4.40;99.90;;;;;;4969598;28;20043;-89
2021/01/12 08:45:45;;;;;;;23.33;1.45;;;4.40;99.90;;;;;;4971891;28;20050;-91
2021/01/12 08:48:15;;;;;;;11.15;1.40;;;4.40;99.90;;;;;;4970435;28;20570;-92
2021/01/12 08:50:47;;;;;;;18.02;1.75;;;4.50;99.90;;;;;;4971261;28;20039;-89
2021/01/12 08:53:17;;;;;;;14.95;1.42;;;4.40;99.90;;;;;;4952387;28;20455;-90
2021/01/12 08:55:44;;;;;;;16.70;1.65;;;4.50;99.90;;;;;;4970966;28;20536;-89
2021/01/12 08:58:11;;;;;;;29.10;3.05;;;4.60;99.90;;;;;;4970795;28;20038;-89
2021/01/12 09:00:39;;;;;;;14.32;2.55;;;4.50;99.90;;;;;;4953874;28;20038;-90
2021/01/12 09:03:06;;;;;;;7.13;1.60;;;4.60;99.90;;;;;;4969719;28;20055;-90
2021/01/12 09:05:38;;;;;;;13.60;2.28;;;4.70;99.90;;;;;;4951590;28;20113;-89
2021/01/12 09:08:05;;;;;;;21.77;4.57;;;4.60;99.90;;;;;;4959806;28;20407;-89
2021/01/12 09:10:32;;;;;;;10.13;3.08;;;4.60;99.90;;;;;;4958172;28;20455;-90
2021/01/12 09:12:59;;;;;;;19.10;2.58;;;4.50;99.90;;;;;;4966879;28;20114;-89
2021/01/12 09:15:33;;;;;;;6.90;1.45;;;4.40;99.90;;;;;;4949713;28;20046;-90
2021/01/12 09:18:06;;;;;;;11.93;2.38;;;4.40;99.90;;;;;;4969037;28;20054;-89
2021/01/12 09:20:34;;;;;;;13.07;1.45;;;4.40;99.90;;;;;;4961645;28;20054;-89
2021/01/12 09:23:13;;;;;;;15.60;1.60;;;4.30;99.90;;;;;;4964228;28;20049;-91
2021/01/12 09:26:00;;;;;;;12.88;1.30;;;4.30;99.90;;;;;;4959703;28;20808;-88
2021/01/12 09:28:36;;;;;;;6.30;1.42;;;4.30;99.90;;;;;;4956224;28;20047;-89
2021/01/12 09:31:06;;;;;;;5.00;0.77;;;4.30;99.90;;;;;;4984465;28;20046;-88
2021/01/12 09:33:33;;;;;;;13.07;1.58;;;4.40;99.90;;;;;;4966863;28;20043;-89
2021/01/12 09:36:07;;;;;;;7.03;2.10;;;4.40;99.90;;;;;;4985267;28;20424;-89
2021/01/12 09:38:57;;;;;;;15.40;3.92;;;4.50;99.90;;;;;;4973936;28;20469;-90
2021/01/12 09:41:25;;;;;;;11.20;1.55;;;4.60;99.90;;;;;;4980781;28;20125;-89
2021/01/12 09:43:52;;;;;;;13.48;1.02;;;4.80;99.90;;;;;;4967652;28;20046;-89
2021/01/12 09:46:19;;;;;;;4.65;1.20;;;4.80;99.90;;;;;;4968864;28;20501;-88
2021/01/12 09:48:45;;;;;;;9.02;0.68;;;4.80;99.90;;;;;;4968764;28;20050;-88
2021/01/12 09:51:12;;;;;;;11.35;1.13;;;4.80;99.90;;;;;;4957185;28;20456;-89
2021/01/12 09:53:45;;;;;;;7.63;1.13;;;4.70;99.90;;;;;;4985019;28;20041;-89
2021/01/12 09:56:15;;;;;;;8.52;1.13;;;4.60;99.90;;;;;;4977261;28;20034;-89
2021/01/12 09:58:44;;;;;;;8.20;0.90;;;4.50;99.90;;;;;;4975261;28;20034;-89
2021/01/12 10:01:10;;;;;;;9.68;2.08;;;4.50;99.90;;;;;;4977248;28;20047;-89
2021/01/12 10:03:36;;;;;;;13.35;2.22;;;4.60;99.90;;;;;;4972441;28;20436;-89
2021/01/12 10:06:02;;;;;;;13.75;4.03;;;4.60;99.90;;;;;;4972757;28;20047;-89
2021/01/12 10:08:28;;;;;;;7.78;1.80;;;4.70;99.90;;;;;;4970601;28;20035;-85
2021/01/12 10:10:54;;;;;;;9.07;1.58;;;4.80;99.90;;;;;;4954330;28;20054;-86
2021/01/12 10:13:21;;;;;;;4.95;0.95;;;4.90;98.70;;;;;;4981883;28;20485;-86
2021/01/12 10:15:47;;;;;;;15.65;1.27;;;4.90;97.90;;;;;;4971799;28;20108;-86
2021/01/12 10:18:13;;;;;;;4.03;0.93;;;5.00;95.60;;;;;;4963913;28;20046;-90
2021/01/12 10:20:39;;;;;;;8.05;1.40;;;5.10;95.60;;;;;;4958151;28;20063;-87
2021/01/12 10:23:05;;;;;;;15.70;1.33;;;5.10;95.40;;;;;;4964189;28;20038;-86
2021/01/12 10:25:31;;;;;;;14.20;2.10;;;5.10;95.60;;;;;;4967224;28;21497;-87
2021/01/12 10:27:57;;;;;;;13.10;1.00;;;5.10;95.50;;;;;;4968301;28;20121;-87
2021/01/12 10:30:23;;;;;;;7.22;0.90;;;5.20;95.20;;;;;;4961165;28;20401;-89
2021/01/12 10:32:49;;;;;;;8.30;1.25;;;5.20;95.10;;;;;;4962974;28;20051;-88
2021/01/12 10:35:16;;;;;;;7.55;2.33;;;5.20;94.80;;;;;;4998281;28;20045;-89
2021/01/12 10:37:43;;;;;;;7.20;0.70;;;5.20;95.90;;;;;;4981775;28;20142;-88
2021/01/12 10:40:10;;;;;;;6.53;1.77;;;5.30;94.90;;;;;;4975998;28;20066;-87
2021/01/12 10:42:42;;;;;;;8.02;1.63;;;5.30;93.30;;;;;;4979068;28;20039;-87
2021/01/12 10:45:09;;;;;;;11.07;1.58;;;5.40;93.40;;;;;;4969269;28;20035;-87
2021/01/12 10:47:43;;;;;;;8.95;1.10;;;5.40;92.80;;;;;;4967339;28;20057;-86
2021/01/12 10:50:13;;;;;;;4.43;1.20;;;5.50;92.10;;;;;;4951796;28;20436;-85
2021/01/12 10:52:40;;;;;;;4.72;0.88;;;5.50;93.30;;;;;;4990393;28;20053;-85
2021/01/12 10:55:07;;;;;;;5.47;1.52;;;5.50;92.80;;;;;;4984563;28;20097;-85
2021/01/12 10:57:34;;;;;;;4.60;1.25;;;5.50;92.10;;;;;;4988129;28;20481;-85
2021/01/12 11:00:00;;;;;;;10.98;2.30;;;5.50;95.10;;;;;;4965528;28;20105;-85
2021/01/12 11:02:33;;;;;;;9.05;2.10;;;5.60;95.20;;;;;;4969122;28;20081;-87
2021/01/12 11:04:59;;;;;;;14.80;2.58;;;5.60;93.70;;;;;;4975128;28;20489;-84
2021/01/12 11:07:29;;;;;;;6.22;2.20;;;5.50;94.40;;;;;;4983019;28;20094;-87
2021/01/12 11:09:55;;;;;;;11.45;2.40;;;5.60;94.90;;;;;;4965268;28;20057;-86
2021/01/12 11:12:21;;;;;;;10.25;2.47;;;5.50;94.90;;;;;;4952012;28;20400;-85
2021/01/12 11:14:47;;;;;;;9.65;1.83;;;5.60;94.30;;;;;;4963782;28;20567;-86
2021/01/12 11:17:13;;;;;;;13.38;2.20;;;5.60;95.00;;;;;;4972042;28;20536;-86
2021/01/12 11:19:42;;;;;;;13.27;2.50;;;5.70;94.80;;;;;;4969740;28;20094;-86
2021/01/12 11:22:08;;;;;;;10.50;1.63;;;5.60;94.60;;;;;;4963177;28;20043;-86
2021/01/12 11:24:37;;;;;;;9.25;2.25;;;5.70;94.00;;;;;;4963561;28;20050;-85
2021/01/12 11:27:05;;;;;;;12.80;2.20;;;5.70;94.60;;;;;;4935374;28;20403;-85
2021/01/12 11:29:32;;;;;;;7.97;1.38;;;5.70;94.70;;;;;;4962436;28;20053;-84
2021/01/12 11:31:59;;;;;;;11.30;1.15;;;5.80;94.70;;;;;;4966729;28;20064;-85
2021/01/12 11:34:26;;;;;;;7.18;1.67;;;5.80;95.40;;;;;;4968775;28;20045;-85
2021/01/12 11:36:51;;;;;;;5.47;1.20;;;6.00;94.10;;;;;;4970276;28;20135;-87
2021/01/12 11:39:18;;;;;;;4.22;1.05;;;6.00;94.90;;;;;;4967754;28;20464;-87
2021/01/12 11:41:45;;;;;;;10.73;1.60;;;5.40;98.00;;;;;;4968494;28;20049;-88
2021/01/12 11:44:11;;;;;;;3.17;0.40;;;5.00;99.70;;;;;;4970713;28;20042;-88
2021/01/12 11:46:37;;;;;;;10.43;0.95;;;4.70;99.90;;;;;;4972756;28;20042;-87
2021/01/12 11:49:03;;;;;;;11.57;1.70;;;4.60;99.90;;;;;;4965662;28;20070;-88
2021/01/12 11:51:40;;;;;;;4.35;1.75;;;4.60;99.60;;;;;;4954239;28;20389;-87
2021/01/12 11:54:07;;;;;;;5.07;1.33;;;4.70;99.70;;;;;;4968493;28;20050;-87
2021/01/12 11:56:33;;;;;;;15.95;1.83;;;4.70;99.00;;;;;;4966924;28;20050;-88
2021/01/12 11:58:59;;;;;;;9.73;1.30;;;4.70;99.80;;;;;;4965260;28;20042;-88
2021/01/12 12:01:25;;;;;;;8.57;0.82;;;4.70;99.40;;;;;;4959685;28;20045;-88
2021/01/12 12:03:51;;;;;;;9.18;2.05;;;4.90;99.00;;;;;;4975095;28;20070;-88
2021/01/12 12:06:17;;;;;;;9.02;2.40;;;5.20;99.60;;;;;;4988630;28;20031;-93
2021/01/12 12:08:43;;;;;;;5.82;0.90;;;4.80;99.90;;;;;;4956289;28;20049;-91
2021/01/12 12:11:09;;;;;;;7.47;1.10;;;4.40;99.90;;;;;;4968951;28;20133;-92
2021/01/12 12:13:41;;;;;;;11.88;1.83;;;4.20;99.90;;;;;;4969439;28;20736;-90
2021/01/12 12:16:15;;;;;;;6.53;1.13;;;4.20;99.90;;;;;;4954861;28;20045;-92
2021/01/12 12:18:42;;;;;;;10.98;1.20;;;4.00;99.90;;;;;;4985737;28;20039;-93
2021/01/12 12:21:17;;;;;;;7.57;1.25;;;4.00;99.90;;;;;;4969928;28;20467;-93
2021/01/12 12:23:43;;;;;;;7.93;1.75;;;4.00;99.90;;;;;;4969358;28;20085;-91
2021/01/12 12:26:14;;;;;;;9.13;1.15;;;4.10;99.90;;;;;;4974497;28;20480;-93
2021/01/12 12:28:41;;;;;;;8.75;0.90;;;4.20;99.90;;;;;;4997137;28;20473;-93
2021/01/12 12:31:08;;;;;;;14.50;1.27;;;4.20;99.90;;;;;;4972569;28;20050;-93
2021/01/12 12:33:35;;;;;;;16.15;2.22;;;4.20;99.90;;;;;;4990541;28;20048;-91
2021/01/12 12:36:13;;;;;;;12.98;2.13;;;4.10;99.90;;;;;;4991169;28;20066;-94
2021/01/12 12:38:59;;;;;;;12.13;2.88;;;4.10;99.90;;;;;;4967021;28;20059;-93
2021/01/12 12:41:26;;;;;;;11.52;3.58;;;4.00;99.90;;;;;;4974781;28;20055;-92
2021/01/12 12:43:52;;;;;;;5.30;1.58;;;4.00;99.90;;;;;;4979742;28;20076;-92
2021/01/12 12:46:18;;;;;;;7.07;2.25;;;3.90;99.90;;;;;;4990249;28;20054;-92
2021/01/12 12:48:45;;;;;;;6.35;2.30;;;4.00;99.90;;;;;;4999489;28;20142;-93
2021/01/12 12:51:13;;;;;;;2.30;0.90;;;4.10;99.90;;;;;;4985124;28;20126;-91
2021/01/12 12:53:49;;;;;;;9.90;1.08;;;4.00;99.90;;;;;;4972976;28;20058;-92
2021/01/12 12:56:15;;;;;;;12.10;2.20;;;4.10;99.90;;;;;;4974626;28;20385;-91